Time;durP1;ratioP1;P1;durP2;ratioP2;P2;SDS_P1;SDS_P2;PMS_P1;PMS_P2;Temp;Humidity;BMP_temperature;BMP_pressure;BME280_temperature;BME280_humidity;BME280_pressure;Samples;Min_cycle;Max_cycle;Signal;HPM_P1;HPM_P2
2021/06/04 00:02:09;;;;;;;2.00;1.30;;;24.90;45.40;;;;;;5047277;28;20064;-59
2021/06/04 00:04:35;;;;;;;1.95;1.30;;;25.00;45.50;;;;;;5047866;28;20060;-59
2021/06/04 00:07:02;;;;;;;2.40;1.40;;;24.90;45.40;;;;;;5061432;28;20031;-60
2021/06/04 00:09:27;;;;;;;3.53;1.60;;;24.90;45.50;;;;;;5053428;28;20110;-60
2021/06/04 00:11:59;;;;;;;2.00;1.60;;;25.00;45.50;;;;;;5065818;28;20025;-60
2021/06/04 00:14:30;;;;;;;2.78;1.50;;;24.90;45.40;;;;;;5059125;28;20075;-60
2021/06/04 00:17:20;;;;;;;2.85;1.48;;;24.90;45.40;;;;;;5064713;28;20543;-59
2021/06/04 00:19:47;;;;;;;3.20;1.60;;;24.90;45.40;;;;;;5059167;28;20375;-60
2021/06/04 00:22:17;;;;;;;2.40;1.40;;;24.90;45.40;;;;;;5066800;28;20028;-62
2021/06/04 00:24:44;;;;;;;2.00;1.30;;;24.90;45.40;;;;;;5058089;28;20033;-63
2021/06/04 00:27:11;;;;;;;2.03;1.45;;;24.90;45.40;;;;;;5048661;28;20112;-60
2021/06/04 00:29:38;;;;;;;2.08;1.30;;;24.90;45.30;;;;;;5049973;28;20029;-60
2021/06/04 00:32:05;;;;;;;1.83;1.30;;;24.90;45.30;;;;;;5048878;28;20039;-60
2021/06/04 00:34:30;;;;;;;2.08;1.40;;;24.90;45.40;;;;;;5052044;28;20032;-60
2021/06/04 00:36:57;;;;;;;2.22;1.50;;;24.90;45.30;;;;;;5061046;28;20028;-60
2021/06/04 00:39:26;;;;;;;2.03;1.50;;;24.90;45.30;;;;;;5059287;28;20486;-60
2021/06/04 00:41:59;;;;;;;2.25;1.45;;;24.90;45.40;;;;;;5068558;28;20789;-62
2021/06/04 00:44:27;;;;;;;2.20;1.30;;;24.90;45.30;;;;;;5053900;28;20037;-62
2021/06/04 00:46:53;;;;;;;1.88;1.23;;;24.90;45.30;;;;;;5054052;28;20036;-60
2021/06/04 00:49:19;;;;;;;2.78;1.40;;;24.90;45.30;;;;;;5068726;28;20416;-62
2021/06/04 00:51:51;;;;;;;2.10;1.40;;;24.90;45.30;;;;;;5069122;28;20039;-60
2021/06/04 00:54:19;;;;;;;2.55;1.52;;;24.90;45.40;;;;;;5065679;28;20576;-63
2021/06/04 00:56:47;;;;;;;1.60;1.20;;;24.90;45.30;;;;;;5054481;28;20590;-62
2021/06/04 00:59:14;;;;;;;2.83;1.42;;;24.90;45.30;;;;;;5048432;28;20112;-60
2021/06/04 01:01:41;;;;;;;2.08;1.40;;;24.90;45.30;;;;;;5065422;28;20044;-59
2021/06/04 01:04:14;;;;;;;1.75;1.30;;;24.90;45.30;;;;;;5049023;28;20128;-59
2021/06/04 01:06:51;;;;;;;2.10;1.50;;;24.90;45.30;;;;;;5062991;28;20024;-60
2021/06/04 01:09:45;;;;;;;2.50;1.48;;;24.80;45.20;;;;;;5068105;28;20150;-62
2021/06/04 01:12:43;;;;;;;2.72;1.50;;;24.80;45.30;;;;;;5068660;28;20032;-62
2021/06/04 01:15:33;;;;;;;1.63;1.20;;;24.80;45.20;;;;;;5050658;28;20024;-62
2021/06/04 01:18:11;;;;;;;3.28;1.38;;;24.80;45.20;;;;;;5049136;28;20080;-60
2021/06/04 01:20:58;;;;;;;2.42;1.33;;;24.80;45.20;;;;;;5053249;28;20033;-60
2021/06/04 01:23:52;;;;;;;2.33;1.45;;;24.90;45.30;;;;;;5049368;28;20025;-59
2021/06/04 01:26:29;;;;;;;2.50;1.60;;;24.90;45.80;;;;;;5051561;28;20102;-60
2021/06/04 01:29:22;;;;;;;2.05;1.40;;;24.80;45.20;;;;;;5068591;28;20033;-62
2021/06/04 01:31:52;;;;;;;2.13;1.48;;;24.80;45.20;;;;;;5062264;28;20094;-60
2021/06/04 01:34:27;;;;;;;2.42;1.50;;;24.80;45.20;;;;;;5066738;28;20111;-60
2021/06/04 01:37:01;;;;;;;1.80;1.30;;;24.80;45.20;;;;;;5061458;28;20052;-60
2021/06/04 01:39:34;;;;;;;2.40;1.30;;;24.80;45.20;;;;;;5059496;28;20474;-61
2021/06/04 01:42:02;;;;;;;2.75;1.52;;;24.80;45.20;;;;;;5066127;28;20029;-60
2021/06/04 01:44:43;;;;;;;2.42;1.60;;;24.80;45.20;;;;;;5059275;28;20526;-60
2021/06/04 01:47:15;;;;;;;3.00;1.60;;;24.80;45.20;;;;;;5048008;28;20154;-60
2021/06/04 01:49:45;;;;;;;2.13;1.45;;;24.80;45.20;;;;;;5047777;28;20142;-60
2021/06/04 01:52:16;;;;;;;2.17;1.48;;;24.80;45.20;;;;;;5047826;28;20043;-60
2021/06/04 01:54:51;;;;;;;2.45;1.60;;;24.80;45.20;;;;;;5052025;28;20578;-60
2021/06/04 01:57:26;;;;;;;2.20;1.50;;;24.80;45.20;;;;;;5057558;28;20056;-59
2021/06/04 01:59:52;;;;;;;2.28;1.50;;;24.80;45.20;;;;;;5061990;28;20037;-60
2021/06/04 02:02:24;;;;;;;2.25;1.55;;;24.80;45.20;;;;;;5068572;28;20040;-60
2021/06/04 02:04:54;;;;;;;1.98;1.20;;;24.80;45.20;;;;;;5059840;28;20049;-60
2021/06/04 02:07:31;;;;;;;2.30;1.40;;;24.80;45.20;;;;;;5054790;28;20032;-60
2021/06/04 02:09:59;;;;;;;2.17;1.45;;;24.80;45.20;;;;;;5063735;28;20032;-60
2021/06/04 02:12:26;;;;;;;2.30;1.23;;;24.80;45.20;;;;;;5066895;28;20104;-60
2021/06/04 02:14:57;;;;;;;2.33;1.40;;;24.80;45.20;;;;;;5067486;28;20028;-60
2021/06/04 02:17:48;;;;;;;2.08;1.30;;;24.80;45.20;;;;;;5065790;28;20138;-60
2021/06/04 02:20:33;;;;;;;2.55;1.60;;;24.80;45.20;;;;;;5051306;28;20024;-60
2021/06/04 02:23:05;;;;;;;2.67;1.50;;;24.80;45.20;;;;;;5064663;28;20128;-60
2021/06/04 02:25:49;;;;;;;2.10;1.45;;;24.80;45.20;;;;;;5050635;28;20055;-60
2021/06/04 02:28:17;;;;;;;2.30;1.30;;;24.70;45.10;;;;;;5052012;28;20593;-60
2021/06/04 02:31:05;;;;;;;1.83;1.30;;;24.80;45.20;;;;;;5061299;28;20399;-59
2021/06/04 02:33:49;;;;;;;1.98;1.42;;;24.80;45.20;;;;;;5060884;28;20283;-60
2021/06/04 02:36:20;;;;;;;2.03;1.52;;;24.80;45.20;;;;;;5055362;28;20064;-60
2021/06/04 02:38:53;;;;;;;2.42;1.50;;;24.80;45.20;;;;;;5059027;28;20025;-58
2021/06/04 02:41:25;;;;;;;2.00;1.50;;;24.80;45.20;;;;;;5055313;28;20063;-60
2021/06/04 02:43:57;;;;;;;2.50;1.48;;;24.70;45.10;;;;;;5066980;28;20056;-60
2021/06/04 02:46:40;;;;;;;2.03;1.38;;;24.70;45.10;;;;;;5055900;28;20047;-60
2021/06/04 02:49:09;;;;;;;2.65;1.50;;;24.70;45.10;;;;;;5062041;28;20029;-60
2021/06/04 02:51:38;;;;;;;2.03;1.40;;;24.80;45.20;;;;;;5060185;28;20421;-59
2021/06/04 02:54:11;;;;;;;2.15;1.40;;;24.80;45.20;;;;;;5062246;28;20052;-60
2021/06/04 02:56:43;;;;;;;2.20;1.50;;;24.70;45.10;;;;;;5059669;28;20036;-61
2021/06/04 02:59:36;;;;;;;2.42;1.55;;;24.70;45.10;;;;;;5049001;28;20061;-60
2021/06/04 03:02:03;;;;;;;2.28;1.60;;;24.70;45.20;;;;;;5046291;28;20044;-60
2021/06/04 03:04:32;;;;;;;2.30;1.50;;;24.70;45.10;;;;;;5047404;28;20029;-60
2021/06/04 03:07:02;;;;;;;1.98;1.30;;;24.70;45.10;;;;;;5054229;28;20477;-59
2021/06/04 03:09:31;;;;;;;2.78;1.40;;;24.70;45.10;;;;;;5053109;28;20060;-60
2021/06/04 03:12:00;;;;;;;2.35;1.40;;;24.70;45.10;;;;;;5062580;28;20433;-60
2021/06/04 03:14:27;;;;;;;2.05;1.45;;;24.70;45.20;;;;;;5047028;28;20108;-60
2021/06/04 03:16:54;;;;;;;2.25;1.50;;;24.70;45.10;;;;;;5061714;28;20032;-59
2021/06/04 03:19:21;;;;;;;2.35;1.45;;;24.70;45.60;;;;;;5055096;28;20028;-60
2021/06/04 03:22:07;;;;;;;2.17;1.40;;;24.70;45.10;;;;;;5053281;28;20039;-60
2021/06/04 03:24:35;;;;;;;1.92;1.30;;;24.70;45.10;;;;;;5066033;28;20033;-60
2021/06/04 03:27:02;;;;;;;2.20;1.48;;;24.70;45.10;;;;;;5065714;28;20064;-61
2021/06/04 03:29:28;;;;;;;3.08;1.50;;;24.70;45.10;;;;;;5059060;28;20540;-60
2021/06/04 03:31:59;;;;;;;2.78;1.50;;;24.70;45.10;;;;;;5045698;28;20132;-60
2021/06/04 03:34:26;;;;;;;2.08;1.40;;;24.70;45.10;;;;;;5052749;28;20032;-60
2021/06/04 03:36:54;;;;;;;2.17;1.48;;;24.70;45.10;;;;;;5065581;28;20089;-60
2021/06/04 03:39:24;;;;;;;2.30;1.42;;;24.70;45.20;;;;;;5061362;28;20497;-60
2021/06/04 03:41:51;;;;;;;1.80;1.40;;;24.70;45.20;;;;;;5059582;28;20028;-60
2021/06/04 03:44:19;;;;;;;2.22;1.50;;;24.70;45.10;;;;;;5066242;28;20029;-60
2021/06/04 03:46:45;;;;;;;1.80;1.23;;;24.70;45.10;;;;;;5064517;28;20456;-60
2021/06/04 03:49:13;;;;;;;2.10;1.27;;;24.60;45.10;;;;;;5065455;28;20028;-60
2021/06/04 03:51:41;;;;;;;2.15;1.40;;;24.70;45.10;;;;;;5070117;28;20028;-60
2021/06/04 03:54:10;;;;;;;1.65;1.20;;;24.60;45.10;;;;;;5061349;28;20360;-60
2021/06/04 03:56:37;;;;;;;2.20;1.40;;;24.70;45.10;;;;;;5058008;28;20658;-60
2021/06/04 03:59:04;;;;;;;2.63;1.45;;;24.60;45.10;;;;;;5049809;28;20029;-59
2021/06/04 04:01:54;;;;;;;2.58;1.48;;;24.70;45.10;;;;;;5068086;28;20041;-60
2021/06/04 04:04:20;;;;;;;2.28;1.48;;;24.60;45.10;;;;;;5064915;28;20017;-60
2021/06/04 04:06:46;;;;;;;2.10;1.40;;;24.60;45.10;;;;;;5061746;28;20429;-60
2021/06/04 04:09:12;;;;;;;2.17;1.50;;;24.60;45.10;;;;;;5058637;28;20028;-59
2021/06/04 04:11:40;;;;;;;2.28;1.33;;;24.60;45.10;;;;;;5068397;28;20051;-60
2021/06/04 04:14:06;;;;;;;2.00;1.30;;;24.60;45.10;;;;;;5069699;28;20135;-60
2021/06/04 04:16:32;;;;;;;2.22;1.40;;;24.60;45.10;;;;;;5067862;28;20032;-60
2021/06/04 04:18:58;;;;;;;2.75;1.52;;;24.60;45.60;;;;;;5055376;28;20028;-60
2021/06/04 04:21:24;;;;;;;1.80;1.25;;;24.60;45.10;;;;;;5050255;28;20372;-60
2021/06/04 04:23:56;;;;;;;1.73;1.30;;;24.60;45.10;;;;;;5052109;28;20116;-60
2021/06/04 04:26:27;;;;;;;2.00;1.20;;;24.60;45.10;;;;;;5048728;28;20173;-61
2021/06/04 04:28:53;;;;;;;1.92;1.20;;;24.60;45.10;;;;;;5050235;28;20040;-59
2021/06/04 04:31:25;;;;;;;2.28;1.23;;;24.60;45.10;;;;;;5049448;28;20052;-60
2021/06/04 04:33:52;;;;;;;2.83;1.48;;;24.60;45.10;;;;;;5067572;28;20103;-60
2021/06/04 04:36:21;;;;;;;2.33;1.27;;;24.60;45.60;;;;;;5067697;28;20761;-60
2021/06/04 04:38:46;;;;;;;2.10;1.40;;;24.60;45.10;;;;;;5060385;28;20021;-60
2021/06/04 04:41:13;;;;;;;2.22;1.40;;;24.60;45.60;;;;;;5060894;28;20475;-60
2021/06/04 04:43:41;;;;;;;2.38;1.40;;;24.60;45.10;;;;;;5065431;28;20438;-60
2021/06/04 04:46:10;;;;;;;2.13;1.40;;;24.60;45.60;;;;;;5064819;28;20040;-60
2021/06/04 04:48:35;;;;;;;2.17;1.35;;;24.60;45.10;;;;;;5069501;28;20024;-59
2021/06/04 04:51:01;;;;;;;2.28;1.45;;;24.60;45.60;;;;;;5068018;28;20037;-60
2021/06/04 04:53:27;;;;;;;2.00;1.40;;;24.60;45.10;;;;;;5060919;28;20031;-60
2021/06/04 04:55:54;;;;;;;2.20;1.40;;;24.60;45.10;;;;;;5049200;28;20029;-61
2021/06/04 04:58:20;;;;;;;1.90;1.38;;;24.60;45.10;;;;;;5049086;28;20036;-60
2021/06/04 05:00:47;;;;;;;1.67;1.20;;;24.60;45.10;;;;;;5047892;28;20036;-60
2021/06/04 05:03:14;;;;;;;1.75;1.33;;;24.60;45.10;;;;;;5065470;28;20101;-60
2021/06/04 05:05:41;;;;;;;2.22;1.30;;;24.60;45.10;;;;;;5063480;28;20029;-60
2021/06/04 05:08:07;;;;;;;2.60;1.48;;;24.60;45.10;;;;;;5052707;28;20040;-60
2021/06/04 05:10:34;;;;;;;1.85;1.30;;;24.50;45.00;;;;;;5048645;28;20118;-60
2021/06/04 05:13:00;;;;;;;1.90;1.25;;;24.60;45.10;;;;;;5049049;28;20031;-60
2021/06/04 05:15:30;;;;;;;2.20;1.40;;;24.50;45.00;;;;;;5049019;28;20025;-60
2021/06/04 05:17:56;;;;;;;2.00;1.40;;;24.60;45.10;;;;;;5067396;28;20036;-61
2021/06/04 05:20:23;;;;;;;2.10;1.40;;;24.50;45.00;;;;;;5055194;28;20056;-60
2021/06/04 05:22:49;;;;;;;1.63;1.20;;;24.50;45.00;;;;;;5061849;28;20094;-60
2021/06/04 05:25:23;;;;;;;1.98;1.27;;;24.60;45.10;;;;;;5060757;28;20028;-60
2021/06/04 05:27:51;;;;;;;2.00;1.40;;;24.60;45.10;;;;;;5048137;28;20033;-60
2021/06/04 05:30:22;;;;;;;2.20;1.30;;;24.60;45.10;;;;;;5070154;28;20417;-60
2021/06/04 05:32:47;;;;;;;1.45;1.17;;;24.50;45.10;;;;;;5060442;28;20041;-61
2021/06/04 05:35:13;;;;;;;2.35;1.40;;;24.50;45.10;;;;;;5058546;28;20080;-60
2021/06/04 05:37:39;;;;;;;1.88;1.30;;;24.50;45.00;;;;;;5060957;28;20756;-60
2021/06/04 05:40:12;;;;;;;1.92;1.30;;;24.50;45.00;;;;;;5056523;28;20165;-60
2021/06/04 05:42:38;;;;;;;2.13;1.20;;;24.50;45.10;;;;;;5063486;28;20115;-60
2021/06/04 05:45:06;;;;;;;2.25;1.42;;;24.50;45.10;;;;;;5059724;28;20065;-60
2021/06/04 05:47:31;;;;;;;1.77;1.30;;;24.50;45.10;;;;;;5066921;28;20036;-61
2021/06/04 05:49:57;;;;;;;2.22;1.50;;;24.50;45.00;;;;;;5048583;28;20035;-61
2021/06/04 05:52:23;;;;;;;2.10;1.48;;;24.50;45.10;;;;;;5049048;28;20025;-61
2021/06/04 05:54:49;;;;;;;2.03;1.35;;;24.50;45.60;;;;;;5054326;28;20064;-59
2021/06/04 05:57:16;;;;;;;2.22;1.40;;;24.50;45.10;;;;;;5059212;28;20490;-60
2021/06/04 05:59:41;;;;;;;1.67;1.27;;;24.50;45.10;;;;;;5056869;28;20037;-61
2021/06/04 06:02:08;;;;;;;1.90;1.20;;;24.50;45.10;;;;;;5054160;28;20105;-60
2021/06/04 06:04:34;;;;;;;1.50;1.20;;;24.50;45.10;;;;;;5051722;28;20037;-61
2021/06/04 06:07:00;;;;;;;1.92;1.30;;;24.50;45.60;;;;;;5059656;28;20529;-61
2021/06/04 06:09:25;;;;;;;2.38;1.48;;;24.50;45.10;;;;;;5054129;28;20025;-61
2021/06/04 06:11:51;;;;;;;1.95;1.50;;;24.50;45.10;;;;;;5057957;28;20055;-61
2021/06/04 06:14:18;;;;;;;1.92;1.38;;;24.50;45.10;;;;;;5047930;28;20028;-61
2021/06/04 06:16:45;;;;;;;1.80;1.20;;;24.50;45.10;;;;;;5055563;28;20226;-60
2021/06/04 06:19:14;;;;;;;2.40;1.40;;;24.50;45.10;;;;;;5057120;28;20063;-60
2021/06/04 06:21:43;;;;;;;1.80;1.38;;;24.50;45.10;;;;;;5064552;28;20043;-60
2021/06/04 06:24:09;;;;;;;2.17;1.25;;;24.50;45.10;;;;;;5051129;28;20079;-59
2021/06/04 06:26:34;;;;;;;2.10;1.48;;;24.50;45.10;;;;;;5052595;28;20628;-60
2021/06/04 06:29:01;;;;;;;1.60;1.20;;;24.50;45.40;;;;;;5058239;28;20028;-60
2021/06/04 06:31:33;;;;;;;2.10;1.50;;;24.50;45.10;;;;;;5047740;28;20045;-59
2021/06/04 06:33:59;;;;;;;2.42;1.30;;;24.50;45.10;;;;;;5056483;28;20063;-60
2021/06/04 06:36:30;;;;;;;2.00;1.48;;;24.50;45.10;;;;;;5051595;28;20036;-60
2021/06/04 06:38:58;;;;;;;1.83;1.20;;;24.50;45.10;;;;;;5058018;28;20028;-60
2021/06/04 06:41:25;;;;;;;1.85;1.30;;;24.50;45.10;;;;;;5059208;28;20059;-60
2021/06/04 06:43:52;;;;;;;1.80;1.30;;;24.40;45.10;;;;;;5057491;28;20033;-60
2021/06/04 06:46:20;;;;;;;1.95;1.20;;;24.50;45.10;;;;;;5050335;28;20045;-60
2021/06/04 06:48:46;;;;;;;1.77;1.23;;;24.40;45.10;;;;;;5060830;28;20032;-60
2021/06/04 06:51:12;;;;;;;1.98;1.30;;;24.50;45.20;;;;;;5046608;28;20041;-58
2021/06/04 06:53:39;;;;;;;1.65;1.20;;;24.50;45.20;;;;;;5059383;28;20032;-60
2021/06/04 06:56:08;;;;;;;2.53;1.30;;;24.40;45.10;;;;;;5058629;28;20127;-61
2021/06/04 06:58:35;;;;;;;1.63;1.20;;;24.40;45.10;;;;;;5057165;28;20086;-61
2021/06/04 07:01:02;;;;;;;1.90;1.40;;;24.40;45.10;;;;;;5054276;28;20060;-61
2021/06/04 07:03:31;;;;;;;1.50;1.05;;;24.40;45.20;;;;;;5056565;28;20051;-61
2021/06/04 07:06:03;;;;;;;1.75;1.20;;;24.40;45.10;;;;;;5065741;28;20490;-61
2021/06/04 07:08:29;;;;;;;1.73;1.30;;;24.40;45.10;;;;;;5061307;28;20063;-61
2021/06/04 07:10:55;;;;;;;1.98;1.27;;;24.40;45.10;;;;;;5058420;28;20028;-62
2021/06/04 07:13:26;;;;;;;2.00;1.30;;;24.40;45.10;;;;;;5046826;28;20572;-61
2021/06/04 07:15:58;;;;;;;1.73;1.27;;;24.50;45.20;;;;;;5052113;28;20036;-60
2021/06/04 07:18:24;;;;;;;1.40;1.17;;;24.40;45.10;;;;;;5065654;28;20115;-61
2021/06/04 07:20:50;;;;;;;1.77;1.27;;;24.40;45.10;;;;;;5051823;28;20120;-60
2021/06/04 07:23:17;;;;;;;1.77;1.30;;;24.40;45.10;;;;;;5063316;28;20112;-60
2021/06/04 07:25:44;;;;;;;2.10;1.40;;;24.40;45.60;;;;;;5065155;28;20032;-60
2021/06/04 07:28:12;;;;;;;1.55;1.25;;;24.40;45.20;;;;;;5056701;28;20021;-61
2021/06/04 07:30:43;;;;;;;2.03;1.30;;;24.40;45.10;;;;;;5057133;28;20044;-62
2021/06/04 07:33:14;;;;;;;1.80;1.10;;;24.40;45.10;;;;;;5058486;28;20036;-61
2021/06/04 07:35:40;;;;;;;1.75;1.23;;;24.40;45.10;;;;;;5059627;28;20110;-61
2021/06/04 07:38:07;;;;;;;1.75;1.27;;;24.40;45.10;;;;;;5056757;28;20497;-61
2021/06/04 07:40:34;;;;;;;1.67;1.13;;;24.40;45.10;;;;;;5050847;28;20093;-61
2021/06/04 07:43:05;;;;;;;2.10;1.20;;;24.40;45.10;;;;;;5049704;28;20844;-61
2021/06/04 07:45:33;;;;;;;2.38;1.35;;;24.40;45.10;;;;;;5067434;28;20021;-61
2021/06/04 07:47:59;;;;;;;1.98;1.30;;;24.40;45.10;;;;;;5066274;28;20017;-61
2021/06/04 07:50:25;;;;;;;1.50;1.13;;;24.40;45.10;;;;;;5055232;28;20043;-60
2021/06/04 07:52:50;;;;;;;1.67;1.30;;;24.40;45.10;;;;;;5056855;28;20025;-61
2021/06/04 07:55:17;;;;;;;1.63;1.30;;;24.40;45.10;;;;;;5053785;28;20021;-61
2021/06/04 07:57:43;;;;;;;2.03;1.20;;;24.40;45.10;;;;;;5058886;28;20164;-61
2021/06/04 08:00:33;;;;;;;2.42;1.30;;;24.40;45.10;;;;;;5059793;28;20017;-60
2021/06/04 08:03:02;;;;;;;1.50;1.00;;;24.40;45.10;;;;;;5054192;28;20044;-61
2021/06/04 08:05:29;;;;;;;2.20;1.20;;;24.40;45.10;;;;;;5056181;28;20154;-61
2021/06/04 08:07:55;;;;;;;1.70;1.20;;;24.40;45.10;;;;;;5063576;28;20032;-60
2021/06/04 08:10:21;;;;;;;1.65;1.20;;;24.40;45.10;;;;;;5057862;28;20051;-61
2021/06/04 08:12:47;;;;;;;1.58;1.10;;;24.40;45.10;;;;;;5061918;28;20052;-61
2021/06/04 08:15:33;;;;;;;1.50;1.10;;;24.30;45.00;;;;;;5069912;28;20467;-60
2021/06/04 08:17:59;;;;;;;1.60;1.10;;;24.40;45.10;;;;;;5066341;28;20143;-60
2021/06/04 08:20:28;;;;;;;1.73;1.30;;;24.40;45.10;;;;;;5060322;28;20035;-61
2021/06/04 08:22:57;;;;;;;1.95;1.33;;;24.40;45.10;;;;;;5050674;28;20041;-60
2021/06/04 08:25:30;;;;;;;1.58;1.30;;;24.40;45.10;;;;;;5062893;28;20032;-61
2021/06/04 08:27:56;;;;;;;1.73;1.23;;;24.40;45.20;;;;;;5054175;28;20424;-60
2021/06/04 08:30:23;;;;;;;1.73;1.20;;;24.40;45.10;;;;;;5055718;28;20056;-61
2021/06/04 08:32:48;;;;;;;1.85;1.20;;;24.40;45.20;;;;;;5063844;28;20859;-61
2021/06/04 08:35:15;;;;;;;1.60;1.13;;;24.40;45.20;;;;;;5060290;28;20028;-60
2021/06/04 08:37:41;;;;;;;1.85;1.33;;;24.40;45.20;;;;;;5066374;28;20096;-61
2021/06/04 08:40:16;;;;;;;1.92;1.40;;;24.40;45.20;;;;;;5064764;28;20112;-61
2021/06/04 08:43:12;;;;;;;1.52;1.13;;;24.40;45.20;;;;;;5062230;28;20020;-61
2021/06/04 08:45:53;;;;;;;2.20;1.25;;;24.40;45.20;;;;;;5048256;28;20113;-61
2021/06/04 08:48:32;;;;;;;2.03;1.17;;;24.40;45.20;;;;;;5061757;28;20478;-61
2021/06/04 08:51:12;;;;;;;1.75;1.30;;;24.40;45.20;;;;;;5048632;28;20047;-60
2021/06/04 08:53:50;;;;;;;1.42;1.10;;;24.40;45.20;;;;;;5057483;28;20056;-62
2021/06/04 08:56:19;;;;;;;1.58;1.10;;;24.40;45.30;;;;;;5058025;28;20750;-61
2021/06/04 08:59:09;;;;;;;1.80;1.20;;;24.40;45.20;;;;;;5060478;28;20432;-62
2021/06/04 09:01:34;;;;;;;;;;;24.40;45.30;;;;;;5053606;28;20040;-61
2021/06/04 09:04:18;;;;;;;1.77;1.27;;;24.40;45.30;;;;;;5055121;28;19915;-61
2021/06/04 09:06:53;;;;;;;1.70;1.30;;;24.40;45.80;;;;;;5059524;28;20032;-60
2021/06/04 09:09:29;;;;;;;1.45;1.20;;;24.40;45.20;;;;;;5050847;28;20028;-60
2021/06/04 09:11:58;;;;;;;1.70;1.30;;;24.40;45.30;;;;;;5054367;28;20138;-61
2021/06/04 09:14:24;;;;;;;2.13;1.35;;;24.40;45.30;;;;;;5058816;28;20096;-61
2021/06/04 09:17:05;;;;;;;1.70;1.30;;;24.40;45.30;;;;;;5060948;28;20116;-61
2021/06/04 09:20:00;;;;;;;2.00;1.25;;;24.40;45.40;;;;;;5062027;28;20474;-60
2021/06/04 09:22:30;;;;;;;2.30;1.30;;;24.40;45.40;;;;;;5038149;28;20385;-61
2021/06/04 09:24:56;;;;;;;2.83;1.45;;;24.40;45.40;;;;;;5067538;28;20109;-61
2021/06/04 09:27:26;;;;;;;1.60;1.10;;;24.40;45.30;;;;;;5052747;28;20032;-61
2021/06/04 09:30:18;;;;;;;1.95;1.38;;;24.40;45.40;;;;;;5056292;28;20052;-61
2021/06/04 09:33:02;;;;;;;1.90;1.30;;;24.40;45.40;;;;;;5066065;28;20154;-61
2021/06/04 09:35:28;;;;;;;1.80;1.30;;;24.40;45.40;;;;;;5051655;28;20031;-61
2021/06/04 09:38:19;;;;;;;1.80;1.40;;;24.40;45.30;;;;;;5061194;28;20742;-61
2021/06/04 09:40:45;;;;;;;1.58;1.17;;;24.40;45.40;;;;;;5058377;28;20978;-62
2021/06/04 09:43:40;;;;;;;1.95;1.40;;;24.40;45.30;;;;;;5048624;28;20044;-62
2021/06/04 09:46:08;;;;;;;1.50;1.20;;;24.40;45.30;;;;;;5049473;28;20033;-61
2021/06/04 09:48:53;;;;;;;1.80;1.20;;;24.40;45.30;;;;;;5065932;28;20121;-62
2021/06/04 09:51:26;;;;;;;2.25;1.40;;;24.40;45.30;;;;;;5050540;28;20526;-61
2021/06/04 09:53:54;;;;;;;2.38;1.40;;;24.40;45.30;;;;;;5049588;28;20044;-60
2021/06/04 09:56:33;;;;;;;1.83;1.33;;;24.40;45.30;;;;;;5059783;28;20051;-60
2021/06/04 09:59:05;;;;;;;1.60;1.30;;;24.40;45.30;;;;;;5048913;28;20021;-61
2021/06/04 10:01:42;;;;;;;1.85;1.40;;;24.40;45.30;;;;;;5048208;28;20364;-61
2021/06/04 10:04:15;;;;;;;2.38;1.40;;;24.40;45.30;;;;;;5061141;28;20020;-61
2021/06/04 10:06:49;;;;;;;2.25;1.50;;;24.50;45.40;;;;;;5062341;28;20043;-61
2021/06/04 10:09:32;;;;;;;2.00;1.30;;;24.50;45.40;;;;;;5056632;28;20059;-61
2021/06/04 10:12:09;;;;;;;2.35;1.38;;;24.50;45.50;;;;;;5054905;28;20031;-59
2021/06/04 10:20:46;;;;;;;2.60;1.42;;;24.50;45.60;;;;;;5048037;28;20086;-61
2021/06/04 10:23:34;;;;;;;2.25;1.58;;;24.50;45.60;;;;;;5061416;28;20035;-60
2021/06/04 10:26:16;;;;;;;1.77;1.40;;;24.50;45.60;;;;;;5050295;28;20039;-62
2021/06/04 10:28:47;;;;;;;2.08;1.50;;;24.50;45.70;;;;;;5054869;28;20099;-60
2021/06/04 10:31:15;;;;;;;2.50;1.90;;;24.50;45.70;;;;;;5053939;28;20484;-60
2021/06/04 10:33:54;;;;;;;2.40;1.50;;;24.50;45.80;;;;;;5054927;28;20171;-60
2021/06/04 10:36:22;;;;;;;2.38;1.60;;;24.50;45.80;;;;;;5064545;28;20185;-61
2021/06/04 10:38:54;;;;;;;2.33;1.70;;;24.50;45.80;;;;;;5059300;28;20041;-60
2021/06/04 10:41:43;;;;;;;2.40;1.60;;;24.50;45.90;;;;;;5059167;28;20051;-60
2021/06/04 10:44:18;;;;;;;3.40;1.70;;;24.50;45.90;;;;;;5055879;28;20569;-60
2021/06/04 10:47:10;;;;;;;2.60;1.70;;;24.50;45.90;;;;;;5051869;28;20032;-60
2021/06/04 10:50:12;;;;;;;2.40;1.75;;;24.50;45.90;;;;;;5056235;28;20068;-60
2021/06/04 10:52:58;;;;;;;2.47;1.70;;;24.60;46.10;;;;;;5049035;28;20033;-61
2021/06/04 10:55:33;;;;;;;1.80;1.40;;;24.50;45.90;;;;;;5053181;28;20707;-60
2021/06/04 10:58:27;;;;;;;1.83;1.50;;;24.60;45.90;;;;;;5059865;28;20025;-61
2021/06/04 11:00:57;;;;;;;1.88;1.50;;;24.50;45.80;;;;;;5053861;28;20137;-60
2021/06/04 11:03:39;;;;;;;1.95;1.50;;;24.60;45.90;;;;;;5054008;28;20052;-61
2021/06/04 11:06:38;;;;;;;1.80;1.30;;;24.60;46.00;;;;;;5063651;28;20052;-61
2021/06/04 11:09:22;;;;;;;2.40;1.70;;;24.60;45.90;;;;;;5062004;28;20467;-61
2021/06/04 11:12:19;;;;;;;2.15;1.50;;;24.60;45.90;;;;;;5059297;28;20056;-61
2021/06/04 11:15:08;;;;;;;2.38;1.42;;;24.60;45.70;;;;;;5052159;28;20033;-60
2021/06/04 11:17:43;;;;;;;2.22;1.70;;;24.60;45.40;;;;;;5048640;28;20021;-59
2021/06/04 11:20:22;;;;;;;2.10;1.55;;;24.60;45.60;;;;;;5055472;28;20051;-61
2021/06/04 11:23:06;;;;;;;1.88;1.50;;;24.60;45.50;;;;;;5047662;28;20035;-61
2021/06/04 11:25:53;;;;;;;2.20;1.65;;;24.60;45.90;;;;;;5055072;28;20041;-62
2021/06/04 11:28:47;;;;;;;1.80;1.48;;;24.60;45.70;;;;;;5048340;28;20352;-62
2021/06/04 11:31:23;;;;;;;1.73;1.30;;;24.60;45.70;;;;;;5042807;28;20134;-63
2021/06/04 11:33:53;;;;;;;2.05;1.63;;;24.60;45.60;;;;;;5054959;28;20103;-63
2021/06/04 11:36:27;;;;;;;2.58;1.60;;;24.60;46.20;;;;;;5057517;28;20703;-62
2021/06/04 11:38:58;;;;;;;2.17;1.60;;;24.60;45.80;;;;;;5055077;28;20432;-63
2021/06/04 11:41:45;;;;;;;2.38;1.58;;;24.60;46.30;;;;;;5056570;28;20037;-62
2021/06/04 11:44:28;;;;;;;2.35;1.60;;;24.60;45.80;;;;;;5048107;28;20020;-62
2021/06/04 11:47:14;;;;;;;2.30;1.63;;;24.70;46.10;;;;;;5048163;28;20122;-63
2021/06/04 11:49:59;;;;;;;2.08;1.40;;;24.70;46.10;;;;;;5051861;28;20040;-63
2021/06/04 11:52:44;;;;;;;2.40;1.50;;;24.60;46.10;;;;;;5060761;28;20171;-62
2021/06/04 11:55:12;;;;;;;2.20;1.60;;;24.70;46.10;;;;;;5050514;28;20378;-62
2021/06/04 11:57:42;;;;;;;2.20;1.67;;;24.70;46.30;;;;;;5043483;28;20025;-62
2021/06/04 12:00:39;;;;;;;2.97;1.90;;;24.70;46.20;;;;;;5049073;28;20067;-62
2021/06/04 12:03:04;;;;;;;2.00;1.40;;;24.70;46.30;;;;;;5060079;28;20103;-63
2021/06/04 12:05:55;;;;;;;2.28;1.60;;;24.70;46.20;;;;;;5053699;28;20506;-63
2021/06/04 12:08:24;;;;;;;1.70;1.40;;;24.70;47.00;;;;;;5059265;28;20017;-63
2021/06/04 12:10:49;;;;;;;1.90;1.40;;;24.80;46.30;;;;;;5060273;28;20736;-63
2021/06/04 12:13:32;;;;;;;1.85;1.52;;;24.70;46.40;;;;;;5058076;28;20029;-63
2021/06/04 12:16:25;;;;;;;2.38;1.52;;;24.70;46.30;;;;;;5053598;28;20054;-63
2021/06/04 12:19:00;;;;;;;2.35;1.70;;;24.80;46.40;;;;;;5053784;28;20103;-64
2021/06/04 12:21:38;;;;;;;1.92;1.60;;;24.80;46.40;;;;;;5059076;28;20474;-64
2021/06/04 12:24:22;;;;;;;2.40;1.50;;;24.80;46.40;;;;;;5066512;28;20098;-63
2021/06/04 12:26:49;;;;;;;2.80;1.70;;;24.80;46.50;;;;;;5064165;28;20028;-63
2021/06/04 12:29:21;;;;;;;1.85;1.50;;;24.80;46.40;;;;;;5065945;28;20119;-64
2021/06/04 12:31:47;;;;;;;1.85;1.40;;;24.80;46.50;;;;;;5051718;28;20040;-63
2021/06/04 12:34:32;;;;;;;3.30;1.70;;;24.80;46.50;;;;;;5058891;28;20039;-63
2021/06/04 12:37:20;;;;;;;1.95;1.60;;;24.80;46.40;;;;;;5063115;28;20098;-63
2021/06/04 12:40:00;;;;;;;2.78;1.63;;;24.80;46.60;;;;;;5057981;28;20380;-63
2021/06/04 12:42:29;;;;;;;2.35;1.60;;;24.80;46.70;;;;;;5060143;28;20479;-63
2021/06/04 12:45:12;;;;;;;2.35;1.90;;;24.80;46.50;;;;;;5063227;28;20052;-64
2021/06/04 12:47:37;;;;;;;2.03;1.48;;;24.80;46.60;;;;;;5064420;28;20036;-63
2021/06/04 12:50:09;;;;;;;2.08;1.58;;;24.90;46.60;;;;;;5065080;28;20032;-63
2021/06/04 12:52:35;;;;;;;2.10;1.52;;;24.90;46.70;;;;;;5056983;28;20029;-62
2021/06/04 12:55:22;;;;;;;2.05;1.48;;;24.90;46.70;;;;;;5053727;28;20020;-63
2021/06/04 12:57:49;;;;;;;2.00;1.60;;;24.90;46.70;;;;;;5054518;28;20100;-63
2021/06/04 13:00:30;;;;;;;2.08;1.60;;;24.90;46.70;;;;;;5060794;28;20025;-64
2021/06/04 13:03:10;;;;;;;2.30;1.60;;;24.90;47.00;;;;;;5064243;28;20028;-64
2021/06/04 13:05:36;;;;;;;2.47;1.73;;;24.90;46.60;;;;;;5061378;28;20093;-63
2021/06/04 13:08:09;;;;;;;2.30;1.60;;;24.90;46.60;;;;;;5061308;28;20028;-62
2021/06/04 13:10:45;;;;;;;2.67;1.60;;;25.00;46.60;;;;;;5065276;28;20112;-62
2021/06/04 13:13:13;;;;;;;1.90;1.48;;;24.90;46.50;;;;;;5060588;28;20078;-63
2021/06/04 13:15:39;;;;;;;2.03;1.50;;;24.90;46.50;;;;;;5056906;28;20021;-63
2021/06/04 13:18:09;;;;;;;2.38;1.63;;;24.90;47.00;;;;;;5059748;28;20279;-63
2021/06/04 13:20:42;;;;;;;2.47;1.50;;;25.00;46.40;;;;;;5065935;28;20032;-62
2021/06/04 13:23:20;;;;;;;2.40;1.60;;;25.00;46.50;;;;;;5066795;28;20058;-62